Mutual, Oklahoma
Current Conditions -  °F | °C
As of 3:15 PM on Friday 24 Oct 2014 (Local Time) from KWWR Reporting Station
Clear Clear  
Wind Chill: 86°   Ceiling: Unl
Heat Index: 86°   Visibility: 10mi
Dew Point: 50°   Wind: 5mph
Humidity: 29%   Direction: 160°SSE
Pressure: 30.05"   Gusts: NA
Location:  36.23°N, 99.17°W
Report Text: KWWR 242015Z AUTO 16004KT 10SM CLR 30/10 A3005 RMK AO2
Loading
Personal Weather Stations






























Interactive Weather Map
Tropical Storm Tracking
New forecast layout! Learn more

10-Day Weather Forecast

Advertisements
Track Severe Weather on mobile